createdAt,value
2022-11-25T00:00:45.023Z,6.50
2022-11-25T00:03:30.920Z,6.40
2022-11-25T00:06:20.180Z,6.40
2022-11-25T00:09:11.775Z,6.30
2022-11-25T00:11:57.318Z,6.30
2022-11-25T00:14:46.261Z,6.30
2022-11-25T00:17:32.015Z,6.30
2022-11-25T00:20:20.455Z,6.30
2022-11-25T00:23:06.860Z,6.30
2022-11-25T00:25:52.375Z,6.20
2022-11-25T00:28:41.005Z,6.20
2022-11-25T00:31:31.693Z,6.20
2022-11-25T00:34:17.457Z,6.20
2022-11-25T00:37:04.412Z,6.20
2022-11-25T00:39:50.527Z,6.30
2022-11-25T00:42:55.109Z,6.30
2022-11-25T00:45:43.350Z,6.30
2022-11-25T00:48:29.166Z,6.30
2022-11-25T00:51:14.642Z,6.30
2022-11-25T00:54:01.420Z,6.40
2022-11-25T00:56:47.569Z,6.30
2022-11-25T00:59:33.288Z,6.30
2022-11-25T01:02:19.681Z,6.40
2022-11-25T01:05:05.723Z,6.40
2022-11-25T01:07:53.301Z,6.40
2022-11-25T01:10:41.461Z,6.40
2022-11-25T01:13:28.228Z,6.40
2022-11-25T01:16:19.613Z,6.40
2022-11-25T01:19:07.143Z,6.40
2022-11-25T01:21:54.498Z,6.50
2022-11-25T01:24:40.607Z,6.60
2022-11-25T01:27:27.410Z,6.60
2022-11-25T01:30:13.858Z,6.60
2022-11-25T01:33:01.394Z,6.60
2022-11-25T01:35:47.147Z,6.70
2022-11-25T01:38:34.340Z,6.70
2022-11-25T01:41:22.418Z,6.70
2022-11-25T01:44:21.463Z,6.70
2022-11-25T01:47:19.097Z,6.70
2022-11-25T01:50:08.762Z,6.70
2022-11-25T01:52:56.529Z,6.70
2022-11-25T01:55:52.190Z,6.70
2022-11-25T01:58:39.390Z,6.70
2022-11-25T02:01:24.922Z,6.70
2022-11-25T02:04:13.592Z,6.70
2022-11-25T02:07:21.609Z,6.70
2022-11-25T02:10:15.425Z,6.70
2022-11-25T02:13:04.051Z,6.60
2022-11-25T02:15:50.294Z,6.50
2022-11-25T02:18:36.051Z,6.50
2022-11-25T02:21:40.492Z,6.50
2022-11-25T02:24:34.233Z,6.40
2022-11-25T02:27:22.520Z,6.40
2022-11-25T02:30:08.938Z,6.30
2022-11-25T02:32:57.754Z,6.40
2022-11-25T02:35:59.390Z,6.40
2022-11-25T02:38:56.071Z,6.40
2022-11-25T02:41:52.462Z,6.40
2022-11-25T02:44:38.407Z,6.50
2022-11-25T02:47:24.209Z,6.60
2022-11-25T02:50:10.631Z,6.60
2022-11-25T02:52:58.033Z,6.70
2022-11-25T02:55:46.030Z,6.70
2022-11-25T02:58:31.556Z,6.70
2022-11-25T03:01:17.778Z,6.70
2022-11-25T03:04:04.594Z,6.60
2022-11-25T03:06:50.116Z,6.60
2022-11-25T03:09:35.765Z,6.60
2022-11-25T03:12:21.342Z,6.60
2022-11-25T03:15:12.313Z,6.80
2022-11-25T03:17:58.222Z,6.60
2022-11-25T03:20:44.286Z,6.60
2022-11-25T03:23:30.332Z,6.60
2022-11-25T03:26:15.857Z,6.50
2022-11-25T03:29:01.462Z,6.50
2022-11-25T03:31:47.222Z,6.60
2022-11-25T03:34:34.367Z,6.70
2022-11-25T03:37:21.548Z,6.80
2022-11-25T03:40:08.905Z,6.80
2022-11-25T03:42:56.312Z,6.90
2022-11-25T03:45:44.164Z,7.00
2022-11-25T03:48:29.870Z,7.00
2022-11-25T03:51:17.271Z,6.90
2022-11-25T03:54:03.304Z,6.70
2022-11-25T03:56:57.838Z,6.70
2022-11-25T03:59:43.332Z,6.70
2022-11-25T04:02:29.779Z,6.80
2022-11-25T04:05:16.308Z,6.80
2022-11-25T04:08:01.858Z,6.80
2022-11-25T04:10:49.848Z,6.80
2022-11-25T04:13:38.186Z,6.80
2022-11-25T04:16:26.555Z,6.70
2022-11-25T04:19:14.117Z,6.70
2022-11-25T04:22:01.203Z,6.70
2022-11-25T04:24:49.201Z,6.70
2022-11-25T04:27:40.118Z,6.70
2022-11-25T04:30:27.490Z,6.70
2022-11-25T04:33:13.943Z,6.60
2022-11-25T04:36:01.064Z,6.60
2022-11-25T04:38:47.371Z,6.70
2022-11-25T04:41:35.033Z,6.60
2022-11-25T04:44:21.030Z,6.50
2022-11-25T04:47:08.180Z,6.50
2022-11-25T04:49:55.020Z,6.50
2022-11-25T04:52:41.103Z,6.70
2022-11-25T04:55:26.640Z,6.90
2022-11-25T04:58:12.350Z,7.00
2022-11-25T05:00:59.741Z,7.00
2022-11-25T05:03:49.745Z,7.00
2022-11-25T05:06:39.364Z,7.00
2022-11-25T05:09:27.420Z,7.10
2022-11-25T05:12:27.473Z,7.20
2022-11-25T05:15:13.817Z,7.40
2022-11-25T05:18:03.159Z,7.40
2022-11-25T05:21:04.373Z,7.50
2022-11-25T05:23:56.279Z,7.50
2022-11-25T05:26:47.572Z,7.40
2022-11-25T05:29:34.426Z,7.30
2022-11-25T05:32:23.110Z,7.30
2022-11-25T05:35:10.424Z,7.20
2022-11-25T05:38:01.187Z,7.30
2022-11-25T05:40:50.068Z,7.30
2022-11-25T05:43:36.747Z,7.30
2022-11-25T05:46:22.819Z,7.30
2022-11-25T05:49:13.580Z,7.30
2022-11-25T05:52:01.298Z,7.40
2022-11-25T05:54:56.809Z,7.40
2022-11-25T05:57:43.710Z,7.40
2022-11-25T06:00:29.670Z,7.40
2022-11-25T06:03:24.729Z,7.50
2022-11-25T06:06:12.340Z,7.50
2022-11-25T06:08:58.510Z,7.50
2022-11-25T06:11:45.547Z,7.50
2022-11-25T06:14:31.309Z,7.50
2022-11-25T06:17:19.398Z,7.60
2022-11-25T06:20:24.140Z,7.60
2022-11-25T06:23:11.287Z,7.60
2022-11-25T06:26:23.311Z,7.60
2022-11-25T06:29:11.055Z,7.60
2022-11-25T06:31:59.395Z,7.60
2022-11-25T06:35:11.096Z,7.70
2022-11-25T06:38:09.553Z,7.70
2022-11-25T06:41:00.540Z,7.70
2022-11-25T06:43:47.438Z,7.70
2022-11-25T06:46:32.941Z,7.80
2022-11-25T06:49:19.868Z,7.70
2022-11-25T06:52:05.743Z,7.80
2022-11-25T06:54:53.832Z,7.90
2022-11-25T06:57:39.276Z,7.90
2022-11-25T07:00:25.038Z,7.90
2022-11-25T07:03:11.267Z,8.00
2022-11-25T07:05:58.264Z,8.00
2022-11-25T07:08:44.403Z,8.00
2022-11-25T07:11:35.296Z,8.10
2022-11-25T07:14:20.819Z,8.20
2022-11-25T07:17:11.759Z,8.30
2022-11-25T07:19:57.771Z,8.30
2022-11-25T07:22:43.269Z,8.40
2022-11-25T07:25:30.884Z,8.50
2022-11-25T07:28:16.890Z,8.50
2022-11-25T07:31:32.139Z,8.50
2022-11-25T07:34:21.166Z,8.50
2022-11-25T07:37:06.485Z,8.60
2022-11-25T07:39:52.205Z,8.60
2022-11-25T07:42:37.978Z,8.60
2022-11-25T07:45:27.082Z,8.60
2022-11-25T07:48:24.998Z,8.70
2022-11-25T07:51:19.027Z,8.70
2022-11-25T07:54:06.778Z,8.70
2022-11-25T07:56:52.539Z,8.70
2022-11-25T07:59:41.267Z,8.70
2022-11-25T08:02:26.697Z,8.70
2022-11-25T08:05:12.462Z,8.80
2022-11-25T08:07:57.888Z,8.80
2022-11-25T08:10:43.586Z,8.80
2022-11-25T08:13:29.092Z,8.80
2022-11-25T08:16:17.367Z,8.90
2022-11-25T08:19:05.668Z,8.90
2022-11-25T08:21:51.482Z,8.90
2022-11-25T08:24:36.991Z,8.90
2022-11-25T08:27:22.398Z,8.90
2022-11-25T08:30:08.760Z,8.90
2022-11-25T08:32:54.553Z,8.90
2022-11-25T08:35:40.155Z,9.00
2022-11-25T08:38:26.422Z,8.90
2022-11-25T08:41:20.655Z,9.00
2022-11-25T08:44:08.125Z,9.10
2022-11-25T08:46:53.710Z,9.20
2022-11-25T08:49:41.555Z,9.30
2022-11-25T08:52:29.134Z,9.40
2022-11-25T08:55:14.996Z,9.40
2022-11-25T08:58:00.461Z,9.50
2022-11-25T09:00:45.937Z,9.50
2022-11-25T09:03:36.517Z,9.60
2022-11-25T09:06:22.362Z,9.70
2022-11-25T09:09:08.016Z,9.80
2022-11-25T09:11:53.515Z,9.90
2022-11-25T09:14:40.492Z,10.00
2022-11-25T09:17:25.938Z,10.00
2022-11-25T09:20:11.952Z,10.10
2022-11-25T09:23:00.603Z,10.10
2022-11-25T09:25:57.499Z,10.10
2022-11-25T09:28:42.724Z,10.10
2022-11-25T09:31:28.364Z,10.20
2022-11-25T09:34:14.025Z,10.20
2022-11-25T09:36:59.496Z,10.30
2022-11-25T09:39:44.996Z,10.40
2022-11-25T09:43:12.513Z,10.50
2022-11-25T09:46:19.641Z,10.60
2022-11-25T09:49:26.715Z,10.80
2022-11-25T09:52:18.333Z,10.90
2022-11-25T09:55:12.108Z,10.80
2022-11-25T09:58:04.097Z,10.80
2022-11-25T10:00:51.517Z,10.80
2022-11-25T10:03:43.681Z,10.80
2022-11-25T10:06:36.151Z,10.90
2022-11-25T10:09:26.006Z,10.80
2022-11-25T10:12:24.819Z,10.80
2022-11-25T10:15:41.597Z,10.70
2022-11-25T10:18:39.481Z,10.80
2022-11-25T10:21:25.703Z,10.90
2022-11-25T10:24:17.653Z,10.90
2022-11-25T10:27:07.023Z,10.90
2022-11-25T10:30:04.898Z,10.90
2022-11-25T10:33:18.333Z,10.80
2022-11-25T10:36:03.707Z,11.40
2022-11-25T10:39:00.662Z,10.80
2022-11-25T10:41:58.875Z,10.80
2022-11-25T10:44:44.674Z,10.90
2022-11-25T10:47:56.876Z,10.90
2022-11-25T10:50:51.732Z,10.90
2022-11-25T10:53:38.360Z,10.90
2022-11-25T10:56:23.868Z,10.90
2022-11-25T10:59:23.504Z,10.90
2022-11-25T11:02:19.136Z,10.90
2022-11-25T11:05:10.479Z,10.90
2022-11-25T11:08:22.186Z,10.80
2022-11-25T11:11:19.958Z,10.80
2022-11-25T11:14:20.097Z,10.80
2022-11-25T11:17:05.674Z,10.80
2022-11-25T11:20:09.428Z,10.80
2022-11-25T11:22:56.629Z,10.80
2022-11-25T11:25:44.463Z,10.90
2022-11-25T11:28:38.723Z,11.00
2022-11-25T11:31:29.120Z,11.00
2022-11-25T11:34:37.503Z,11.00
2022-11-25T11:37:32.325Z,11.10
2022-11-25T11:40:38.750Z,11.10
2022-11-25T11:43:50.665Z,11.10
2022-11-25T11:46:45.738Z,11.10
2022-11-25T11:49:39.176Z,11.10
2022-11-25T11:52:34.893Z,11.10
2022-11-25T11:55:55.975Z,11.20
2022-11-25T11:59:07.415Z,10.90
2022-11-25T12:02:50.261Z,10.90
2022-11-25T12:05:37.330Z,11.00
2022-11-25T12:08:22.882Z,11.00
2022-11-25T12:11:17.298Z,11.00
2022-11-25T12:14:24.628Z,11.00
2022-11-25T12:17:27.107Z,11.00
2022-11-25T12:20:36.512Z,11.00
2022-11-25T12:24:04.095Z,10.90
2022-11-25T12:26:54.074Z,10.90
2022-11-25T12:29:48.146Z,11.00
2022-11-25T12:32:48.801Z,11.10
2022-11-25T12:35:59.815Z,11.20
2022-11-25T12:39:01.215Z,11.40
2022-11-25T12:41:52.827Z,12.20
2022-11-25T12:44:59.480Z,12.70
2022-11-25T12:47:45.541Z,12.60
2022-11-25T12:50:51.697Z,12.50
2022-11-25T12:53:46.440Z,12.30
2022-11-25T12:57:10.635Z,12.10
2022-11-25T13:04:00.841Z,12.00
2022-11-25T13:07:18.683Z,11.90
2022-11-25T13:10:25.272Z,11.80
2022-11-25T13:13:18.547Z,11.70
2022-11-25T13:16:07.309Z,11.80
2022-11-25T13:18:54.938Z,12.20
2022-11-25T13:22:06.208Z,12.50
2022-11-25T13:24:51.660Z,13.00
2022-11-25T13:27:40.121Z,13.00
2022-11-25T13:30:38.138Z,13.00
2022-11-25T13:33:23.956Z,12.90
2022-11-25T13:36:21.392Z,12.70
2022-11-25T13:39:28.437Z,12.60
2022-11-25T13:42:25.444Z,12.50
2022-11-25T13:45:46.192Z,12.40
2022-11-25T13:48:34.942Z,12.40
2022-11-25T13:51:25.261Z,12.30
2022-11-25T13:54:21.437Z,12.30
2022-11-25T13:57:13.338Z,12.30
2022-11-25T14:00:10.118Z,12.30
2022-11-25T14:03:20.862Z,12.40
2022-11-25T14:06:29.144Z,12.30
2022-11-25T14:09:34.371Z,12.30
2022-11-25T14:12:31.040Z,12.30
2022-11-25T14:16:12.437Z,12.30
2022-11-25T14:19:43.379Z,12.30
2022-11-25T14:22:24.457Z,12.30
2022-11-25T14:25:32.096Z,12.20
2022-11-25T14:28:39.195Z,12.20
2022-11-25T14:31:37.364Z,12.10
2022-11-25T14:34:30.198Z,12.00
2022-11-25T14:37:50.129Z,11.90
2022-11-25T14:40:41.840Z,11.80
2022-11-25T14:43:29.221Z,11.80
2022-11-25T14:46:23.437Z,11.80
2022-11-25T14:49:30.732Z,11.70
2022-11-25T14:52:28.554Z,11.50
2022-11-25T14:55:29.726Z,11.50
2022-11-25T14:58:16.311Z,11.40
2022-11-25T15:01:06.908Z,11.30
2022-11-25T15:04:13.066Z,11.10
2022-11-25T15:07:02.594Z,11.00
2022-11-25T15:09:49.079Z,11.00
2022-11-25T15:12:35.007Z,10.90
2022-11-25T15:15:20.793Z,10.80
2022-11-25T15:18:08.224Z,10.80
2022-11-25T15:20:58.093Z,10.70
2022-11-25T15:23:43.573Z,10.60
2022-11-25T15:26:32.888Z,10.60
2022-11-25T15:29:25.581Z,10.50
2022-11-25T15:32:33.718Z,10.50
2022-11-25T15:35:26.914Z,10.50
2022-11-25T15:38:52.311Z,10.50
2022-11-25T15:41:57.458Z,10.50
2022-11-25T15:45:09.881Z,10.50
2022-11-25T15:48:00.733Z,10.50
2022-11-25T15:50:51.412Z,10.50
2022-11-25T15:53:42.831Z,10.40
2022-11-25T15:56:30.893Z,10.40
2022-11-25T16:00:30.007Z,10.40
2022-11-25T16:03:31.906Z,10.30
2022-11-25T16:06:25.664Z,10.30
2022-11-25T16:09:21.457Z,10.30
2022-11-25T16:12:07.478Z,10.30
2022-11-25T16:14:52.955Z,10.20
2022-11-25T16:17:38.739Z,10.20
2022-11-25T16:20:25.249Z,10.20
2022-11-25T16:23:14.123Z,10.20
2022-11-25T16:26:13.256Z,10.10
2022-11-25T16:29:01.261Z,10.10
2022-11-25T16:31:46.956Z,10.10
2022-11-25T16:34:32.840Z,10.10
2022-11-25T16:37:18.410Z,10.10
2022-11-25T16:40:04.428Z,10.00
2022-11-25T16:42:51.729Z,10.00
2022-11-25T16:45:37.904Z,10.00
2022-11-25T16:48:24.565Z,10.00
2022-11-25T16:51:21.200Z,10.00
2022-11-25T16:54:07.210Z,10.00
2022-11-25T16:56:54.815Z,10.00
2022-11-25T16:59:43.420Z,10.00
2022-11-25T17:02:30.028Z,10.00
2022-11-25T17:05:24.983Z,10.00
2022-11-25T17:08:10.537Z,10.00
2022-11-25T17:10:59.219Z,10.00
2022-11-25T17:13:51.112Z,10.00
2022-11-25T17:16:38.200Z,10.00
2022-11-25T17:19:24.510Z,10.00
2022-11-25T17:22:28.604Z,10.00
2022-11-25T17:25:14.663Z,10.10
2022-11-25T17:28:00.507Z,10.10
2022-11-25T17:30:47.765Z,10.10
2022-11-25T17:33:34.890Z,10.00
2022-11-25T17:36:21.255Z,10.00
2022-11-25T17:39:08.435Z,10.00
2022-11-25T17:41:54.278Z,9.90
2022-11-25T17:44:40.400Z,9.80
2022-11-25T17:47:26.773Z,9.70
2022-11-25T17:50:22.772Z,9.70
2022-11-25T17:53:09.494Z,9.50
2022-11-25T17:55:55.116Z,9.50
2022-11-25T17:58:41.092Z,9.40
2022-11-25T18:01:27.680Z,9.30
2022-11-25T18:04:21.943Z,9.20
2022-11-25T18:07:09.864Z,9.20
2022-11-25T18:09:55.341Z,9.10
2022-11-25T18:12:43.149Z,9.00
2022-11-25T18:15:32.060Z,9.00
2022-11-25T18:18:24.301Z,8.90
2022-11-25T18:21:11.963Z,8.90
2022-11-25T18:24:00.399Z,8.90
2022-11-25T18:26:49.904Z,8.90
2022-11-25T18:29:35.715Z,8.90
2022-11-25T18:32:24.486Z,8.90
2022-11-25T18:35:34.119Z,8.90
2022-11-25T18:38:21.902Z,8.90
2022-11-25T18:41:18.504Z,8.80
2022-11-25T18:44:05.571Z,8.80
2022-11-25T18:46:51.515Z,8.80
2022-11-25T18:49:37.478Z,8.80
2022-11-25T18:52:24.364Z,8.80
2022-11-25T18:55:11.559Z,8.80
2022-11-25T18:57:57.341Z,8.70
2022-11-25T19:00:44.698Z,8.70
2022-11-25T19:03:30.541Z,8.50
2022-11-25T19:06:16.287Z,8.50
2022-11-25T19:09:03.399Z,8.40
2022-11-25T19:11:54.614Z,8.30
2022-11-25T19:14:44.879Z,8.20
2022-11-25T19:17:30.545Z,8.10
2022-11-25T19:20:19.695Z,8.10
2022-11-25T19:23:22.733Z,8.10
2022-11-25T19:26:19.379Z,8.10
2022-11-25T19:29:08.037Z,8.10
2022-11-25T19:31:55.476Z,8.00
2022-11-25T19:34:46.699Z,7.90
2022-11-25T19:37:32.851Z,7.90
2022-11-25T19:40:21.592Z,7.90
2022-11-25T19:43:08.612Z,7.90
2022-11-25T19:45:58.926Z,7.90
2022-11-25T19:48:45.051Z,7.90
2022-11-25T19:51:33.685Z,7.80
2022-11-25T19:54:20.099Z,7.70
2022-11-25T19:57:17.430Z,7.60
2022-11-25T20:00:03.255Z,7.60
2022-11-25T20:02:56.333Z,7.50
2022-11-25T20:05:43.265Z,7.50
2022-11-25T20:08:28.939Z,7.50
2022-11-25T20:11:19.305Z,7.50
2022-11-25T20:14:06.052Z,7.50
2022-11-25T20:16:51.448Z,7.50
2022-11-25T20:19:36.964Z,7.50
2022-11-25T20:22:28.022Z,7.60
2022-11-25T20:25:16.122Z,7.60
2022-11-25T20:28:01.720Z,7.70
2022-11-25T20:30:48.875Z,7.80
2022-11-25T20:33:35.137Z,7.90
2022-11-25T20:36:28.835Z,7.90
2022-11-25T20:39:19.559Z,8.00
2022-11-25T20:42:05.128Z,8.00
2022-11-25T20:44:54.709Z,8.10
2022-11-25T20:47:44.455Z,8.10
2022-11-25T20:50:31.260Z,8.10
2022-11-25T20:53:20.991Z,8.00
2022-11-25T20:56:06.640Z,8.00
2022-11-25T20:58:54.517Z,9.20
2022-11-25T21:01:40.868Z,8.10
2022-11-25T21:04:38.027Z,8.10
2022-11-25T21:07:29.497Z,8.20
2022-11-25T21:10:27.187Z,8.20
2022-11-25T21:13:20.025Z,8.30
2022-11-25T21:16:06.190Z,8.30
2022-11-25T21:18:51.732Z,8.30
2022-11-25T21:21:40.367Z,8.30
2022-11-25T21:24:35.379Z,8.30
2022-11-25T21:27:22.539Z,8.30
2022-11-25T21:30:37.323Z,8.30
2022-11-25T21:33:30.607Z,8.30
2022-11-25T21:36:25.839Z,8.40
2022-11-25T21:39:32.484Z,8.40
2022-11-25T21:42:22.724Z,8.40
2022-11-25T21:45:16.653Z,8.40
2022-11-25T21:48:02.773Z,8.40
2022-11-25T21:50:48.477Z,8.40
2022-11-25T21:53:37.265Z,8.40
2022-11-25T21:56:29.062Z,8.40
2022-11-25T21:59:19.657Z,8.40
2022-11-25T22:02:18.502Z,8.40
2022-11-25T22:05:13.392Z,8.50
2022-11-25T22:07:59.919Z,8.50
2022-11-25T22:10:49.250Z,8.40
2022-11-25T22:13:38.696Z,8.40
2022-11-25T22:16:33.039Z,8.30
2022-11-25T22:19:21.429Z,8.30
2022-11-25T22:22:14.937Z,8.30
2022-11-25T22:25:01.147Z,8.30
2022-11-25T22:27:47.478Z,8.20
2022-11-25T22:30:36.236Z,8.20
2022-11-25T22:33:33.033Z,8.10
2022-11-25T22:36:40.073Z,8.00
2022-11-25T22:39:26.989Z,8.10
2022-11-25T22:42:39.075Z,8.10
2022-11-25T22:45:32.409Z,8.20
2022-11-25T22:48:20.771Z,8.20
2022-11-25T22:51:11.650Z,8.20
2022-11-25T22:53:57.531Z,8.20
2022-11-25T22:56:42.937Z,8.20
2022-11-25T22:59:28.601Z,8.10
2022-11-25T23:02:23.822Z,8.10
2022-11-25T23:05:31.916Z,8.10
2022-11-25T23:08:22.333Z,8.00
2022-11-25T23:11:19.929Z,8.00
2022-11-25T23:14:05.435Z,8.00
2022-11-25T23:16:51.190Z,7.90
2022-11-25T23:19:36.540Z,7.90
2022-11-25T23:22:22.086Z,7.90
2022-11-25T23:25:13.744Z,7.80
2022-11-25T23:27:59.422Z,7.70
2022-11-25T23:30:57.950Z,7.70
2022-11-25T23:33:49.486Z,7.60
2022-11-25T23:36:46.734Z,7.60
2022-11-25T23:39:33.087Z,7.60
2022-11-25T23:42:21.420Z,7.60
2022-11-25T23:45:09.529Z,7.50
2022-11-25T23:47:56.924Z,7.50
2022-11-25T23:50:42.598Z,7.40
2022-11-25T23:53:32.099Z,7.40
2022-11-25T23:56:18.198Z,7.40
2022-11-25T23:59:03.674Z,7.40
